sensor_id;sensor_type;location;lat;lon;timestamp;temperature;humidity
81212;DHT22;70686;52.494;13.420;2023-06-26T00:01:17;23.60;61.30
81212;DHT22;70686;52.494;13.420;2023-06-26T00:03:46;23.50;61.90
81212;DHT22;70686;52.494;13.420;2023-06-26T00:06:11;23.40;63.30
81212;DHT22;70686;52.494;13.420;2023-06-26T00:08:37;23.30;62.40
81212;DHT22;70686;52.494;13.420;2023-06-26T00:11:03;23.40;64.20
81212;DHT22;70686;52.494;13.420;2023-06-26T00:13:28;23.20;63.80
81212;DHT22;70686;52.494;13.420;2023-06-26T00:15:54;23.20;64.30
81212;DHT22;70686;52.494;13.420;2023-06-26T00:18:19;23.20;64.00
81212;DHT22;70686;52.494;13.420;2023-06-26T00:20:45;23.10;64.20
81212;DHT22;70686;52.494;13.420;2023-06-26T00:23:11;23.00;64.60
81212;DHT22;70686;52.494;13.420;2023-06-26T00:25:36;22.90;64.80
81212;DHT22;70686;52.494;13.420;2023-06-26T00:28:02;22.90;64.50
81212;DHT22;70686;52.494;13.420;2023-06-26T00:30:27;22.90;64.50
81212;DHT22;70686;52.494;13.420;2023-06-26T00:32:53;23.00;64.60
81212;DHT22;70686;52.494;13.420;2023-06-26T00:35:18;22.90;65.10
81212;DHT22;70686;52.494;13.420;2023-06-26T00:37:44;22.90;65.10
81212;DHT22;70686;52.494;13.420;2023-06-26T00:40:09;22.90;65.20
81212;DHT22;70686;52.494;13.420;2023-06-26T00:42:35;22.80;65.80
81212;DHT22;70686;52.494;13.420;2023-06-26T00:45:00;22.90;65.10
81212;DHT22;70686;52.494;13.420;2023-06-26T00:47:26;23.10;64.50
81212;DHT22;70686;52.494;13.420;2023-06-26T00:49:52;23.20;64.00
81212;DHT22;70686;52.494;13.420;2023-06-26T00:52:18;23.20;64.10
81212;DHT22;70686;52.494;13.420;2023-06-26T00:54:44;23.20;63.90
81212;DHT22;70686;52.494;13.420;2023-06-26T00:57:09;23.20;65.80
81212;DHT22;70686;52.494;13.420;2023-06-26T00:59:35;23.10;65.10
81212;DHT22;70686;52.494;13.420;2023-06-26T01:02:00;23.10;65.30
81212;DHT22;70686;52.494;13.420;2023-06-26T01:04:26;23.00;65.50
81212;DHT22;70686;52.494;13.420;2023-06-26T01:06:53;23.00;65.60
81212;DHT22;70686;52.494;13.420;2023-06-26T01:09:19;22.90;65.90
81212;DHT22;70686;52.494;13.420;2023-06-26T01:11:45;22.90;65.90
81212;DHT22;70686;52.494;13.420;2023-06-26T01:14:11;22.90;66.00
81212;DHT22;70686;52.494;13.420;2023-06-26T01:16:37;22.80;67.00
81212;DHT22;70686;52.494;13.420;2023-06-26T01:19:03;22.70;66.40
81212;DHT22;70686;52.494;13.420;2023-06-26T01:21:34;22.70;66.70
81212;DHT22;70686;52.494;13.420;2023-06-26T01:24:16;22.70;66.80
81212;DHT22;70686;52.494;13.420;2023-06-26T01:26:52;22.70;66.80
81212;DHT22;70686;52.494;13.420;2023-06-26T01:29:18;22.70;67.00
81212;DHT22;70686;52.494;13.420;2023-06-26T01:31:45;22.60;67.10
81212;DHT22;70686;52.494;13.420;2023-06-26T01:34:17;22.60;67.40
81212;DHT22;70686;52.494;13.420;2023-06-26T01:36:46;22.60;67.70
81212;DHT22;70686;52.494;13.420;2023-06-26T01:39:15;22.80;66.20
81212;DHT22;70686;52.494;13.420;2023-06-26T01:41:41;22.90;66.70
81212;DHT22;70686;52.494;13.420;2023-06-26T01:51:51;22.50;67.90
81212;DHT22;70686;52.494;13.420;2023-06-26T01:54:19;22.50;68.10
81212;DHT22;70686;52.494;13.420;2023-06-26T01:56:48;22.40;68.40
81212;DHT22;70686;52.494;13.420;2023-06-26T01:59:14;22.50;68.40
81212;DHT22;70686;52.494;13.420;2023-06-26T02:01:40;22.40;68.50
81212;DHT22;70686;52.494;13.420;2023-06-26T02:04:05;22.30;68.90
81212;DHT22;70686;52.494;13.420;2023-06-26T02:06:30;22.30;69.00
81212;DHT22;70686;52.494;13.420;2023-06-26T02:08:56;22.30;68.70
81212;DHT22;70686;52.494;13.420;2023-06-26T02:11:22;22.30;68.80
81212;DHT22;70686;52.494;13.420;2023-06-26T02:13:47;22.30;69.10
81212;DHT22;70686;52.494;13.420;2023-06-26T02:16:13;22.20;69.20
81212;DHT22;70686;52.494;13.420;2023-06-26T02:18:38;22.30;68.40
81212;DHT22;70686;52.494;13.420;2023-06-26T02:21:04;22.50;67.40
81212;DHT22;70686;52.494;13.420;2023-06-26T02:23:29;22.70;66.70
81212;DHT22;70686;52.494;13.420;2023-06-26T02:25:55;22.70;66.80
81212;DHT22;70686;52.494;13.420;2023-06-26T02:28:20;22.80;66.60
81212;DHT22;70686;52.494;13.420;2023-06-26T02:30:46;22.80;66.20
81212;DHT22;70686;52.494;13.420;2023-06-26T02:33:11;22.90;66.10
81212;DHT22;70686;52.494;13.420;2023-06-26T02:35:37;22.80;66.20
81212;DHT22;70686;52.494;13.420;2023-06-26T02:38:02;22.90;66.00
81212;DHT22;70686;52.494;13.420;2023-06-26T02:40:28;22.80;66.10
81212;DHT22;70686;52.494;13.420;2023-06-26T02:42:53;22.70;66.80
81212;DHT22;70686;52.494;13.420;2023-06-26T02:45:19;22.60;67.30
81212;DHT22;70686;52.494;13.420;2023-06-26T02:47:44;22.50;67.60
81212;DHT22;70686;52.494;13.420;2023-06-26T02:50:10;22.40;68.20
81212;DHT22;70686;52.494;13.420;2023-06-26T02:52:35;22.40;68.50
81212;DHT22;70686;52.494;13.420;2023-06-26T02:55:01;22.30;68.40
81212;DHT22;70686;52.494;13.420;2023-06-26T02:57:26;22.30;68.50
81212;DHT22;70686;52.494;13.420;2023-06-26T02:59:52;22.20;68.80
81212;DHT22;70686;52.494;13.420;2023-06-26T03:02:17;22.30;68.50
81212;DHT22;70686;52.494;13.420;2023-06-26T03:04:43;22.20;69.00
81212;DHT22;70686;52.494;13.420;2023-06-26T03:07:08;22.10;69.00
81212;DHT22;70686;52.494;13.420;2023-06-26T03:09:34;22.10;69.00
81212;DHT22;70686;52.494;13.420;2023-06-26T03:11:59;22.00;69.10
81212;DHT22;70686;52.494;13.420;2023-06-26T03:14:25;22.00;69.30
81212;DHT22;70686;52.494;13.420;2023-06-26T03:16:52;22.00;69.70
81212;DHT22;70686;52.494;13.420;2023-06-26T03:19:18;22.00;69.70
81212;DHT22;70686;52.494;13.420;2023-06-26T03:21:43;22.00;69.70
81212;DHT22;70686;52.494;13.420;2023-06-26T03:24:09;22.00;69.70
81212;DHT22;70686;52.494;13.420;2023-06-26T03:26:34;21.90;69.60
81212;DHT22;70686;52.494;13.420;2023-06-26T03:29:00;21.90;70.00
81212;DHT22;70686;52.494;13.420;2023-06-26T03:31:25;21.90;69.80
81212;DHT22;70686;52.494;13.420;2023-06-26T03:33:51;21.90;69.70
81212;DHT22;70686;52.494;13.420;2023-06-26T03:36:16;21.90;69.90
81212;DHT22;70686;52.494;13.420;2023-06-26T03:38:42;21.80;69.90
81212;DHT22;70686;52.494;13.420;2023-06-26T03:41:07;21.90;69.90
81212;DHT22;70686;52.494;13.420;2023-06-26T03:43:33;21.90;70.00
81212;DHT22;70686;52.494;13.420;2023-06-26T03:45:58;21.90;69.90
81212;DHT22;70686;52.494;13.420;2023-06-26T03:48:24;21.90;69.80
81212;DHT22;70686;52.494;13.420;2023-06-26T03:50:49;22.00;69.40
81212;DHT22;70686;52.494;13.420;2023-06-26T03:53:15;22.00;69.40
81212;DHT22;70686;52.494;13.420;2023-06-26T03:55:40;21.90;69.40
81212;DHT22;70686;52.494;13.420;2023-06-26T03:58:06;22.00;69.10
81212;DHT22;70686;52.494;13.420;2023-06-26T04:00:31;22.00;69.10
81212;DHT22;70686;52.494;13.420;2023-06-26T04:02:57;22.10;69.10
81212;DHT22;70686;52.494;13.420;2023-06-26T04:05:22;22.10;69.10
81212;DHT22;70686;52.494;13.420;2023-06-26T04:07:51;22.20;69.00
81212;DHT22;70686;52.494;13.420;2023-06-26T04:10:17;22.20;68.70
81212;DHT22;70686;52.494;13.420;2023-06-26T04:12:42;22.20;68.90
81212;DHT22;70686;52.494;13.420;2023-06-26T04:15:08;22.10;69.00
81212;DHT22;70686;52.494;13.420;2023-06-26T04:17:34;22.20;68.90
81212;DHT22;70686;52.494;13.420;2023-06-26T04:19:59;22.30;68.50
81212;DHT22;70686;52.494;13.420;2023-06-26T04:22:25;22.40;67.80
81212;DHT22;70686;52.494;13.420;2023-06-26T04:24:51;22.50;67.40
81212;DHT22;70686;52.494;13.420;2023-06-26T04:27:17;22.50;67.40
81212;DHT22;70686;52.494;13.420;2023-06-26T04:29:43;22.60;67.00
81212;DHT22;70686;52.494;13.420;2023-06-26T04:32:08;22.60;67.00
81212;DHT22;70686;52.494;13.420;2023-06-26T04:34:34;22.70;66.90
81212;DHT22;70686;52.494;13.420;2023-06-26T04:37:01;22.70;66.80
81212;DHT22;70686;52.494;13.420;2023-06-26T04:39:29;22.70;66.70
81212;DHT22;70686;52.494;13.420;2023-06-26T04:41:55;22.70;66.60
81212;DHT22;70686;52.494;13.420;2023-06-26T04:44:20;22.70;66.30
81212;DHT22;70686;52.494;13.420;2023-06-26T04:46:46;22.90;65.90
81212;DHT22;70686;52.494;13.420;2023-06-26T04:49:11;22.90;65.60
81212;DHT22;70686;52.494;13.420;2023-06-26T04:51:37;22.90;65.40
81212;DHT22;70686;52.494;13.420;2023-06-26T04:54:06;22.80;65.50
81212;DHT22;70686;52.494;13.420;2023-06-26T04:56:32;22.90;65.50
81212;DHT22;70686;52.494;13.420;2023-06-26T04:58:57;22.90;65.40
81212;DHT22;70686;52.494;13.420;2023-06-26T05:01:24;23.00;65.20
81212;DHT22;70686;52.494;13.420;2023-06-26T05:03:49;23.00;65.10
81212;DHT22;70686;52.494;13.420;2023-06-26T05:06:15;23.10;65.30
81212;DHT22;70686;52.494;13.420;2023-06-26T05:08:40;23.20;64.70
81212;DHT22;70686;52.494;13.420;2023-06-26T05:11:06;23.30;64.60
81212;DHT22;70686;52.494;13.420;2023-06-26T05:13:31;23.40;64.20
81212;DHT22;70686;52.494;13.420;2023-06-26T05:15:57;23.60;63.60
81212;DHT22;70686;52.494;13.420;2023-06-26T05:18:22;23.70;63.10
81212;DHT22;70686;52.494;13.420;2023-06-26T05:20:48;23.70;62.50
81212;DHT22;70686;52.494;13.420;2023-06-26T05:23:15;23.80;62.10
81212;DHT22;70686;52.494;13.420;2023-06-26T05:25:41;24.00;61.70
81212;DHT22;70686;52.494;13.420;2023-06-26T05:28:07;24.10;61.10
81212;DHT22;70686;52.494;13.420;2023-06-26T05:30:35;24.10;61.00
81212;DHT22;70686;52.494;13.420;2023-06-26T05:33:01;24.10;60.90
81212;DHT22;70686;52.494;13.420;2023-06-26T05:35:30;24.10;60.40
81212;DHT22;70686;52.494;13.420;2023-06-26T05:37:56;24.20;59.00
81212;DHT22;70686;52.494;13.420;2023-06-26T05:40:22;24.20;58.10
81212;DHT22;70686;52.494;13.420;2023-06-26T05:42:47;24.30;58.20
81212;DHT22;70686;52.494;13.420;2023-06-26T05:45:13;24.20;58.40
81212;DHT22;70686;52.494;13.420;2023-06-26T05:47:39;24.20;58.20
81212;DHT22;70686;52.494;13.420;2023-06-26T05:50:05;24.20;59.70
81212;DHT22;70686;52.494;13.420;2023-06-26T05:52:31;24.20;58.20
81212;DHT22;70686;52.494;13.420;2023-06-26T05:54:56;24.20;58.40
81212;DHT22;70686;52.494;13.420;2023-06-26T05:57:26;24.20;58.40
81212;DHT22;70686;52.494;13.420;2023-06-26T05:59:52;24.10;58.20
81212;DHT22;70686;52.494;13.420;2023-06-26T06:02:18;24.30;58.00
81212;DHT22;70686;52.494;13.420;2023-06-26T06:04:43;24.50;57.40
81212;DHT22;70686;52.494;13.420;2023-06-26T06:07:09;24.70;56.50
81212;DHT22;70686;52.494;13.420;2023-06-26T06:09:34;24.80;55.30
81212;DHT22;70686;52.494;13.420;2023-06-26T06:12:00;24.70;54.90
81212;DHT22;70686;52.494;13.420;2023-06-26T06:14:27;24.70;55.10
81212;DHT22;70686;52.494;13.420;2023-06-26T06:16:52;24.80;55.10
81212;DHT22;70686;52.494;13.420;2023-06-26T06:19:18;24.70;55.00
81212;DHT22;70686;52.494;13.420;2023-06-26T06:21:43;24.80;54.30
81212;DHT22;70686;52.494;13.420;2023-06-26T06:24:09;24.70;53.70
81212;DHT22;70686;52.494;13.420;2023-06-26T06:26:35;24.80;54.00
81212;DHT22;70686;52.494;13.420;2023-06-26T06:29:00;24.70;53.70
81212;DHT22;70686;52.494;13.420;2023-06-26T06:31:26;24.70;53.70
81212;DHT22;70686;52.494;13.420;2023-06-26T06:33:56;24.90;53.20
81212;DHT22;70686;52.494;13.420;2023-06-26T06:36:21;24.90;53.80
81212;DHT22;70686;52.494;13.420;2023-06-26T06:38:47;24.90;53.80
81212;DHT22;70686;52.494;13.420;2023-06-26T06:41:12;24.90;53.50
81212;DHT22;70686;52.494;13.420;2023-06-26T06:43:39;24.90;53.90
81212;DHT22;70686;52.494;13.420;2023-06-26T06:46:04;25.00;53.60
81212;DHT22;70686;52.494;13.420;2023-06-26T06:48:30;25.20;53.30
81212;DHT22;70686;52.494;13.420;2023-06-26T06:50:56;25.40;53.20
81212;DHT22;70686;52.494;13.420;2023-06-26T06:53:21;25.50;52.70
81212;DHT22;70686;52.494;13.420;2023-06-26T06:55:48;25.60;51.90
81212;DHT22;70686;52.494;13.420;2023-06-26T06:58:15;25.60;51.40
81212;DHT22;70686;52.494;13.420;2023-06-26T07:00:48;25.60;52.10
81212;DHT22;70686;52.494;13.420;2023-06-26T07:03:13;25.70;51.50
81212;DHT22;70686;52.494;13.420;2023-06-26T07:05:40;25.90;51.00
81212;DHT22;70686;52.494;13.420;2023-06-26T07:08:06;25.90;50.50
81212;DHT22;70686;52.494;13.420;2023-06-26T07:10:32;25.90;50.60
81212;DHT22;70686;52.494;13.420;2023-06-26T07:12:57;25.90;50.40
81212;DHT22;70686;52.494;13.420;2023-06-26T07:15:23;26.10;50.00
81212;DHT22;70686;52.494;13.420;2023-06-26T07:17:55;26.10;49.40
81212;DHT22;70686;52.494;13.420;2023-06-26T07:20:21;26.20;49.10
81212;DHT22;70686;52.494;13.420;2023-06-26T07:22:48;26.10;49.80
81212;DHT22;70686;52.494;13.420;2023-06-26T07:25:13;26.20;49.70
81212;DHT22;70686;52.494;13.420;2023-06-26T07:27:40;26.30;49.60
81212;DHT22;70686;52.494;13.420;2023-06-26T07:30:06;26.50;49.20
81212;DHT22;70686;52.494;13.420;2023-06-26T07:32:34;26.60;49.30
81212;DHT22;70686;52.494;13.420;2023-06-26T07:34:59;26.70;48.40
81212;DHT22;70686;52.494;13.420;2023-06-26T07:37:25;26.80;47.50
81212;DHT22;70686;52.494;13.420;2023-06-26T07:39:50;26.70;48.10
81212;DHT22;70686;52.494;13.420;2023-06-26T07:42:16;26.60;48.40
81212;DHT22;70686;52.494;13.420;2023-06-26T07:44:42;26.70;47.80
81212;DHT22;70686;52.494;13.420;2023-06-26T07:47:08;26.70;47.30
81212;DHT22;70686;52.494;13.420;2023-06-26T07:49:33;26.70;47.90
81212;DHT22;70686;52.494;13.420;2023-06-26T07:51:59;26.90;48.30
81212;DHT22;70686;52.494;13.420;2023-06-26T07:54:27;27.00;47.80
81212;DHT22;70686;52.494;13.420;2023-06-26T07:57:02;27.00;47.40
81212;DHT22;70686;52.494;13.420;2023-06-26T07:59:28;27.20;46.50
81212;DHT22;70686;52.494;13.420;2023-06-26T08:01:54;27.30;46.00
81212;DHT22;70686;52.494;13.420;2023-06-26T08:04:20;27.30;46.10
81212;DHT22;70686;52.494;13.420;2023-06-26T08:06:47;27.30;45.40
81212;DHT22;70686;52.494;13.420;2023-06-26T08:09:13;27.40;44.70
81212;DHT22;70686;52.494;13.420;2023-06-26T08:11:38;27.40;44.00
81212;DHT22;70686;52.494;13.420;2023-06-26T08:14:04;27.40;44.20
81212;DHT22;70686;52.494;13.420;2023-06-26T08:16:30;27.50;43.60
81212;DHT22;70686;52.494;13.420;2023-06-26T08:18:55;27.50;44.10
81212;DHT22;70686;52.494;13.420;2023-06-26T08:21:21;27.50;42.90
81212;DHT22;70686;52.494;13.420;2023-06-26T08:23:46;27.60;42.90
81212;DHT22;70686;52.494;13.420;2023-06-26T08:26:12;27.60;42.60
81212;DHT22;70686;52.494;13.420;2023-06-26T08:28:38;27.70;43.20
81212;DHT22;70686;52.494;13.420;2023-06-26T08:31:03;27.70;42.30
81212;DHT22;70686;52.494;13.420;2023-06-26T08:33:29;27.80;42.30
81212;DHT22;70686;52.494;13.420;2023-06-26T08:35:54;27.90;41.40
81212;DHT22;70686;52.494;13.420;2023-06-26T08:38:20;27.90;41.70
81212;DHT22;70686;52.494;13.420;2023-06-26T08:40:46;28.00;40.90
81212;DHT22;70686;52.494;13.420;2023-06-26T08:43:12;28.00;40.60
81212;DHT22;70686;52.494;13.420;2023-06-26T08:45:38;28.10;40.50
81212;DHT22;70686;52.494;13.420;2023-06-26T08:48:03;28.10;40.10
81212;DHT22;70686;52.494;13.420;2023-06-26T08:50:33;28.10;40.00
81212;DHT22;70686;52.494;13.420;2023-06-26T08:53:02;28.20;40.10
81212;DHT22;70686;52.494;13.420;2023-06-26T08:55:29;28.40;39.30
81212;DHT22;70686;52.494;13.420;2023-06-26T08:57:57;28.50;39.80
81212;DHT22;70686;52.494;13.420;2023-06-26T09:00:22;28.50;39.10
81212;DHT22;70686;52.494;13.420;2023-06-26T09:02:48;28.70;39.70
81212;DHT22;70686;52.494;13.420;2023-06-26T09:05:14;28.80;38.50
81212;DHT22;70686;52.494;13.420;2023-06-26T09:07:39;28.70;38.30
81212;DHT22;70686;52.494;13.420;2023-06-26T09:10:06;28.60;38.20
81212;DHT22;70686;52.494;13.420;2023-06-26T09:12:32;28.70;38.00
81212;DHT22;70686;52.494;13.420;2023-06-26T09:14:57;28.70;38.00
81212;DHT22;70686;52.494;13.420;2023-06-26T09:17:24;28.70;38.20
81212;DHT22;70686;52.494;13.420;2023-06-26T09:19:49;28.70;38.20
81212;DHT22;70686;52.494;13.420;2023-06-26T09:22:15;28.80;37.70
81212;DHT22;70686;52.494;13.420;2023-06-26T09:24:41;28.90;38.10
81212;DHT22;70686;52.494;13.420;2023-06-26T09:27:06;28.90;38.10
81212;DHT22;70686;52.494;13.420;2023-06-26T09:29:32;28.90;37.80
81212;DHT22;70686;52.494;13.420;2023-06-26T09:31:59;28.90;37.60
81212;DHT22;70686;52.494;13.420;2023-06-26T09:34:29;28.80;37.60
81212;DHT22;70686;52.494;13.420;2023-06-26T09:36:55;29.00;37.90
81212;DHT22;70686;52.494;13.420;2023-06-26T09:39:20;29.10;38.10
81212;DHT22;70686;52.494;13.420;2023-06-26T09:41:46;29.20;37.70
81212;DHT22;70686;52.494;13.420;2023-06-26T09:44:12;29.20;37.40
81212;DHT22;70686;52.494;13.420;2023-06-26T09:46:38;29.30;37.30
81212;DHT22;70686;52.494;13.420;2023-06-26T09:49:05;29.40;37.80
81212;DHT22;70686;52.494;13.420;2023-06-26T09:51:31;29.40;37.80
81212;DHT22;70686;52.494;13.420;2023-06-26T09:53:58;29.50;37.30
81212;DHT22;70686;52.494;13.420;2023-06-26T09:56:23;29.50;36.60
81212;DHT22;70686;52.494;13.420;2023-06-26T09:58:49;29.40;37.40
81212;DHT22;70686;52.494;13.420;2023-06-26T10:01:15;29.40;37.80
81212;DHT22;70686;52.494;13.420;2023-06-26T10:03:40;29.50;37.50
81212;DHT22;70686;52.494;13.420;2023-06-26T10:06:07;29.60;37.60
81212;DHT22;70686;52.494;13.420;2023-06-26T10:08:34;29.70;36.90
81212;DHT22;70686;52.494;13.420;2023-06-26T10:11:01;29.70;37.40
81212;DHT22;70686;52.494;13.420;2023-06-26T10:13:35;29.70;37.70
81212;DHT22;70686;52.494;13.420;2023-06-26T10:16:02;29.70;37.30
81212;DHT22;70686;52.494;13.420;2023-06-26T10:18:28;29.60;36.70
81212;DHT22;70686;52.494;13.420;2023-06-26T10:20:55;29.50;36.80
81212;DHT22;70686;52.494;13.420;2023-06-26T10:23:22;29.70;36.70
81212;DHT22;70686;52.494;13.420;2023-06-26T10:25:48;29.80;35.60
81212;DHT22;70686;52.494;13.420;2023-06-26T10:28:16;29.80;35.90
81212;DHT22;70686;52.494;13.420;2023-06-26T10:30:42;29.70;36.20
81212;DHT22;70686;52.494;13.420;2023-06-26T10:33:08;29.60;36.40
81212;DHT22;70686;52.494;13.420;2023-06-26T10:35:40;29.60;36.20
81212;DHT22;70686;52.494;13.420;2023-06-26T10:38:06;29.60;36.40
81212;DHT22;70686;52.494;13.420;2023-06-26T10:40:44;29.70;35.90
81212;DHT22;70686;52.494;13.420;2023-06-26T10:43:17;29.90;36.00
81212;DHT22;70686;52.494;13.420;2023-06-26T10:45:49;30.10;35.50
81212;DHT22;70686;52.494;13.420;2023-06-26T10:48:20;30.20;35.30
81212;DHT22;70686;52.494;13.420;2023-06-26T10:50:49;30.20;36.10
81212;DHT22;70686;52.494;13.420;2023-06-26T10:55:48;30.20;35.90
81212;DHT22;70686;52.494;13.420;2023-06-26T10:58:30;30.20;35.60
81212;DHT22;70686;52.494;13.420;2023-06-26T11:03:39;30.30;36.20
81212;DHT22;70686;52.494;13.420;2023-06-26T11:06:13;30.30;35.60
81212;DHT22;70686;52.494;13.420;2023-06-26T11:08:45;30.30;35.90
81212;DHT22;70686;52.494;13.420;2023-06-26T11:11:11;30.50;35.60
81212;DHT22;70686;52.494;13.420;2023-06-26T11:13:36;30.60;34.60
81212;DHT22;70686;52.494;13.420;2023-06-26T11:16:02;30.60;35.20
81212;DHT22;70686;52.494;13.420;2023-06-26T11:18:28;30.70;34.90
81212;DHT22;70686;52.494;13.420;2023-06-26T11:20:53;30.70;34.80
81212;DHT22;70686;52.494;13.420;2023-06-26T11:23:21;30.80;35.00
81212;DHT22;70686;52.494;13.420;2023-06-26T11:25:48;30.80;35.40
81212;DHT22;70686;52.494;13.420;2023-06-26T11:28:14;30.90;34.80
81212;DHT22;70686;52.494;13.420;2023-06-26T11:30:40;30.80;34.70
81212;DHT22;70686;52.494;13.420;2023-06-26T11:33:07;30.90;34.70
81212;DHT22;70686;52.494;13.420;2023-06-26T11:35:33;30.80;34.30
81212;DHT22;70686;52.494;13.420;2023-06-26T11:37:59;30.70;34.50
81212;DHT22;70686;52.494;13.420;2023-06-26T11:40:29;30.90;34.30
81212;DHT22;70686;52.494;13.420;2023-06-26T11:43:00;30.90;34.80
81212;DHT22;70686;52.494;13.420;2023-06-26T11:45:27;30.90;35.10
81212;DHT22;70686;52.494;13.420;2023-06-26T11:47:54;31.00;34.60
81212;DHT22;70686;52.494;13.420;2023-06-26T11:50:20;31.10;34.50
81212;DHT22;70686;52.494;13.420;2023-06-26T11:52:45;31.10;33.90
81212;DHT22;70686;52.494;13.420;2023-06-26T11:55:17;31.10;34.40
81212;DHT22;70686;52.494;13.420;2023-06-26T11:57:47;31.00;34.50
81212;DHT22;70686;52.494;13.420;2023-06-26T12:00:14;31.20;34.50
81212;DHT22;70686;52.494;13.420;2023-06-26T12:02:39;31.20;34.00
81212;DHT22;70686;52.494;13.420;2023-06-26T12:05:06;31.40;33.80
81212;DHT22;70686;52.494;13.420;2023-06-26T12:07:31;31.30;34.20
81212;DHT22;70686;52.494;13.420;2023-06-26T12:09:57;31.30;34.10
81212;DHT22;70686;52.494;13.420;2023-06-26T12:12:23;31.20;34.50
81212;DHT22;70686;52.494;13.420;2023-06-26T12:14:50;31.40;34.10
81212;DHT22;70686;52.494;13.420;2023-06-26T12:17:16;31.40;33.90
81212;DHT22;70686;52.494;13.420;2023-06-26T12:19:45;31.60;33.20
81212;DHT22;70686;52.494;13.420;2023-06-26T12:22:15;31.50;34.10
81212;DHT22;70686;52.494;13.420;2023-06-26T12:24:42;31.60;32.90
81212;DHT22;70686;52.494;13.420;2023-06-26T12:27:15;31.50;33.30
81212;DHT22;70686;52.494;13.420;2023-06-26T12:29:45;31.60;33.30
81212;DHT22;70686;52.494;13.420;2023-06-26T12:32:10;31.60;32.60
81212;DHT22;70686;52.494;13.420;2023-06-26T12:34:36;31.60;33.50
81212;DHT22;70686;52.494;13.420;2023-06-26T12:37:06;31.70;33.20
81212;DHT22;70686;52.494;13.420;2023-06-26T12:42:14;31.80;32.50
81212;DHT22;70686;52.494;13.420;2023-06-26T12:44:40;31.70;32.60
81212;DHT22;70686;52.494;13.420;2023-06-26T12:47:06;31.80;33.10
81212;DHT22;70686;52.494;13.420;2023-06-26T12:49:33;31.90;32.90
81212;DHT22;70686;52.494;13.420;2023-06-26T12:52:00;31.90;32.80
81212;DHT22;70686;52.494;13.420;2023-06-26T12:54:26;32.20;32.50
81212;DHT22;70686;52.494;13.420;2023-06-26T12:56:52;32.50;32.70
81212;DHT22;70686;52.494;13.420;2023-06-26T12:59:17;33.20;31.70
81212;DHT22;70686;52.494;13.420;2023-06-26T13:01:43;33.50;30.60
81212;DHT22;70686;52.494;13.420;2023-06-26T13:04:08;33.20;31.10
81212;DHT22;70686;52.494;13.420;2023-06-26T13:06:35;32.90;30.70
81212;DHT22;70686;52.494;13.420;2023-06-26T13:09:01;32.60;31.00
81212;DHT22;70686;52.494;13.420;2023-06-26T13:11:30;32.50;30.90
81212;DHT22;70686;52.494;13.420;2023-06-26T13:13:56;32.40;31.60
81212;DHT22;70686;52.494;13.420;2023-06-26T13:16:21;32.10;32.40
81212;DHT22;70686;52.494;13.420;2023-06-26T13:18:47;31.90;32.40
81212;DHT22;70686;52.494;13.420;2023-06-26T13:21:14;31.90;32.50
81212;DHT22;70686;52.494;13.420;2023-06-26T13:23:39;31.70;32.60
81212;DHT22;70686;52.494;13.420;2023-06-26T13:26:05;31.60;33.10
81212;DHT22;70686;52.494;13.420;2023-06-26T13:28:31;31.50;33.90
81212;DHT22;70686;52.494;13.420;2023-06-26T13:30:56;31.50;35.40
81212;DHT22;70686;52.494;13.420;2023-06-26T13:33:22;31.30;33.70
81212;DHT22;70686;52.494;13.420;2023-06-26T13:35:51;31.20;34.20
81212;DHT22;70686;52.494;13.420;2023-06-26T13:38:17;31.20;34.70
81212;DHT22;70686;52.494;13.420;2023-06-26T13:40:43;31.20;34.90
81212;DHT22;70686;52.494;13.420;2023-06-26T13:43:08;31.00;34.90
81212;DHT22;70686;52.494;13.420;2023-06-26T13:45:34;31.00;34.60
81212;DHT22;70686;52.494;13.420;2023-06-26T13:47:59;31.00;35.30
81212;DHT22;70686;52.494;13.420;2023-06-26T13:50:25;31.10;35.40
81212;DHT22;70686;52.494;13.420;2023-06-26T13:52:50;31.20;35.70
81212;DHT22;70686;52.494;13.420;2023-06-26T13:55:16;31.30;35.30
81212;DHT22;70686;52.494;13.420;2023-06-26T13:57:42;31.50;34.70
81212;DHT22;70686;52.494;13.420;2023-06-26T14:00:08;31.80;36.10
81212;DHT22;70686;52.494;13.420;2023-06-26T14:02:34;32.00;34.60
81212;DHT22;70686;52.494;13.420;2023-06-26T14:04:59;31.90;34.40
81212;DHT22;70686;52.494;13.420;2023-06-26T14:07:25;31.60;34.50
81212;DHT22;70686;52.494;13.420;2023-06-26T14:09:50;31.50;34.40
81212;DHT22;70686;52.494;13.420;2023-06-26T14:12:16;31.30;34.90
81212;DHT22;70686;52.494;13.420;2023-06-26T14:14:41;31.20;35.20
81212;DHT22;70686;52.494;13.420;2023-06-26T14:17:07;31.10;35.50
81212;DHT22;70686;52.494;13.420;2023-06-26T14:19:34;30.90;34.90
81212;DHT22;70686;52.494;13.420;2023-06-26T14:22:00;30.80;35.20
81212;DHT22;70686;52.494;13.420;2023-06-26T14:24:26;30.10;37.90
81212;DHT22;70686;52.494;13.420;2023-06-26T14:26:52;28.90;43.00
81212;DHT22;70686;52.494;13.420;2023-06-26T14:35:39;22.40;74.00
81212;DHT22;70686;52.494;13.420;2023-06-26T14:38:05;21.10;80.10
81212;DHT22;70686;52.494;13.420;2023-06-26T14:40:30;20.50;81.70
81212;DHT22;70686;52.494;13.420;2023-06-26T14:42:56;20.20;82.20
81212;DHT22;70686;52.494;13.420;2023-06-26T14:45:21;20.20;82.90
81212;DHT22;70686;52.494;13.420;2023-06-26T14:47:47;20.30;83.30
81212;DHT22;70686;52.494;13.420;2023-06-26T14:50:12;20.40;82.20
81212;DHT22;70686;52.494;13.420;2023-06-26T14:52:38;20.50;82.20
81212;DHT22;70686;52.494;13.420;2023-06-26T14:55:03;20.50;82.70
81212;DHT22;70686;52.494;13.420;2023-06-26T14:57:29;20.50;83.90
81212;DHT22;70686;52.494;13.420;2023-06-26T14:59:55;20.50;83.40
81212;DHT22;70686;52.494;13.420;2023-06-26T15:02:21;20.70;83.50
81212;DHT22;70686;52.494;13.420;2023-06-26T15:04:46;20.80;83.30
81212;DHT22;70686;52.494;13.420;2023-06-26T15:07:12;20.90;83.50
81212;DHT22;70686;52.494;13.420;2023-06-26T15:09:38;21.00;82.60
81212;DHT22;70686;52.494;13.420;2023-06-26T15:12:03;21.10;83.20
81212;DHT22;70686;52.494;13.420;2023-06-26T15:14:29;21.10;84.00
81212;DHT22;70686;52.494;13.420;2023-06-26T15:16:54;21.00;83.60
81212;DHT22;70686;52.494;13.420;2023-06-26T15:19:20;21.10;83.00
81212;DHT22;70686;52.494;13.420;2023-06-26T15:21:45;21.10;82.40
81212;DHT22;70686;52.494;13.420;2023-06-26T15:24:23;21.20;82.20
81212;DHT22;70686;52.494;13.420;2023-06-26T15:26:52;21.20;83.40
81212;DHT22;70686;52.494;13.420;2023-06-26T15:29:17;21.10;82.70
81212;DHT22;70686;52.494;13.420;2023-06-26T15:31:43;21.20;82.20